createdAt,value
2022-11-15T00:01:39.890Z,39.08
2022-11-15T00:04:07.452Z,37.58
2022-11-15T00:06:34.559Z,41.53
2022-11-15T00:09:02.198Z,39.58
2022-11-15T00:11:29.385Z,37.88
2022-11-15T00:13:57.155Z,37.53
2022-11-15T00:16:24.425Z,42.85
2022-11-15T00:18:52.328Z,41.17
2022-11-15T00:21:19.648Z,48.55
2022-11-15T00:23:46.996Z,45.83
2022-11-15T00:26:15.501Z,46.42
2022-11-15T00:28:43.192Z,29.85
2022-11-15T00:31:12.233Z,42.13
2022-11-15T00:33:39.515Z,59.42
2022-11-15T00:36:07.901Z,39.75
2022-11-15T00:38:35.545Z,45.15
2022-11-15T00:41:08.883Z,45.88
2022-11-15T00:43:36.876Z,46.05
2022-11-15T00:46:04.085Z,41.60
2022-11-15T00:48:32.403Z,50.50
2022-11-15T00:50:59.653Z,46.45
2022-11-15T00:53:26.738Z,55.72
2022-11-15T00:55:53.950Z,39.72
2022-11-15T00:58:21.023Z,50.47
2022-11-15T01:00:48.286Z,44.22
2022-11-15T01:03:15.392Z,41.00
2022-11-15T01:05:42.641Z,47.90
2022-11-15T01:08:14.062Z,39.15
2022-11-15T01:10:41.390Z,52.08
2022-11-15T01:13:08.615Z,38.50
2022-11-15T01:15:35.694Z,36.97
2022-11-15T01:18:02.763Z,46.00
2022-11-15T01:20:29.940Z,47.72
2022-11-15T01:22:57.069Z,45.20
2022-11-15T01:25:24.200Z,40.38
2022-11-15T01:27:51.470Z,37.33
2022-11-15T01:30:18.551Z,55.45
2022-11-15T01:32:45.666Z,44.80
2022-11-15T01:35:12.735Z,41.58
2022-11-15T01:37:39.832Z,48.50
2022-11-15T01:40:07.194Z,38.80
2022-11-15T01:42:34.327Z,35.92
2022-11-15T01:45:02.761Z,43.15
2022-11-15T01:47:33.025Z,55.13
2022-11-15T01:50:02.308Z,50.83
2022-11-15T01:52:31.401Z,53.17
2022-11-15T01:55:02.823Z,48.25
2022-11-15T01:57:29.972Z,46.65
2022-11-15T01:59:57.679Z,38.47
2022-11-15T02:02:24.780Z,48.13
2022-11-15T02:04:51.890Z,39.45
2022-11-15T02:07:20.272Z,36.67
2022-11-15T02:09:47.794Z,42.10
2022-11-15T02:12:16.540Z,44.10
2022-11-15T02:14:44.813Z,39.63
2022-11-15T02:17:25.853Z,43.33
2022-11-15T02:19:55.680Z,45.42
2022-11-15T02:22:41.633Z,47.13
2022-11-15T02:25:22.435Z,38.47
2022-11-15T02:27:49.695Z,42.85
2022-11-15T02:30:24.265Z,39.97
2022-11-15T02:33:03.467Z,47.60
2022-11-15T02:35:46.737Z,42.28
2022-11-15T02:38:26.334Z,36.05
2022-11-15T02:41:01.969Z,42.20
2022-11-15T02:43:58.258Z,36.05
2022-11-15T02:46:45.282Z,40.95
2022-11-15T02:49:13.738Z,38.38
2022-11-15T02:51:41.579Z,26.83
2022-11-15T02:54:08.954Z,27.25
2022-11-15T02:56:37.233Z,34.95
2022-11-15T02:59:23.379Z,37.97
2022-11-15T03:01:53.795Z,36.78
2022-11-15T03:04:21.122Z,35.22
2022-11-15T03:06:53.096Z,27.52
2022-11-15T03:09:32.699Z,34.40
2022-11-15T03:12:18.370Z,23.75
2022-11-15T03:14:52.304Z,36.40
2022-11-15T03:17:19.346Z,34.45
2022-11-15T03:19:48.755Z,34.65
2022-11-15T03:22:20.605Z,36.03
2022-11-15T03:24:49.303Z,30.58
2022-11-15T03:27:17.383Z,31.40
2022-11-15T03:29:50.139Z,38.75
2022-11-15T03:32:20.430Z,33.95
2022-11-15T03:35:01.660Z,29.02
2022-11-15T03:37:39.032Z,33.40
2022-11-15T03:40:07.074Z,31.85
2022-11-15T03:42:40.248Z,31.30
2022-11-15T03:45:15.237Z,37.85
2022-11-15T03:50:11.554Z,34.45
2022-11-15T03:52:38.941Z,28.95
2022-11-15T03:55:06.695Z,28.58
2022-11-15T03:57:33.884Z,35.00
2022-11-15T04:00:01.012Z,26.00
2022-11-15T04:02:29.175Z,33.03
2022-11-15T04:04:56.323Z,33.78
2022-11-15T04:07:23.560Z,39.03
2022-11-15T04:10:09.013Z,32.97
2022-11-15T04:12:37.882Z,37.97
2022-11-15T04:17:36.725Z,31.73
2022-11-15T04:20:30.610Z,30.92
2022-11-15T04:23:17.051Z,22.63
2022-11-15T04:25:44.935Z,37.38
2022-11-15T04:28:12.754Z,37.47
2022-11-15T04:30:40.080Z,33.28
2022-11-15T04:33:07.226Z,34.58
2022-11-15T04:35:34.405Z,31.33
2022-11-15T04:38:02.116Z,35.00
2022-11-15T04:40:29.291Z,31.45
2022-11-15T04:43:03.283Z,38.20
2022-11-15T04:45:31.129Z,36.30
2022-11-15T04:47:58.444Z,32.63
2022-11-15T04:50:25.577Z,30.85
2022-11-15T04:52:53.946Z,26.77
2022-11-15T04:55:21.159Z,38.47
2022-11-15T04:57:48.320Z,31.80
2022-11-15T05:00:17.516Z,32.45
2022-11-15T05:03:03.664Z,30.50
2022-11-15T05:05:31.146Z,23.20
2022-11-15T05:07:58.242Z,28.15
2022-11-15T05:10:25.522Z,37.92
2022-11-15T05:12:52.662Z,30.17
2022-11-15T05:15:19.752Z,25.33
2022-11-15T05:17:46.865Z,29.52
2022-11-15T05:20:14.172Z,31.20
2022-11-15T05:22:41.428Z,25.23
2022-11-15T05:25:09.044Z,35.10
2022-11-15T05:27:36.470Z,20.95
2022-11-15T05:30:03.630Z,32.30
2022-11-15T05:32:30.875Z,27.05
2022-11-15T05:34:57.964Z,28.83
2022-11-15T05:37:25.070Z,32.47
2022-11-15T05:39:52.195Z,19.95
2022-11-15T05:42:20.546Z,25.83
2022-11-15T05:44:49.379Z,29.30
2022-11-15T05:49:44.835Z,28.92
2022-11-15T05:52:13.185Z,27.58
2022-11-15T05:54:40.706Z,28.60
2022-11-15T05:57:07.979Z,27.30
2022-11-15T05:59:35.325Z,25.63
2022-11-15T06:02:02.472Z,22.50
2022-11-15T06:04:29.826Z,31.55
2022-11-15T06:06:57.132Z,26.42
2022-11-15T06:09:24.218Z,33.35
2022-11-15T06:11:51.313Z,30.33
2022-11-15T06:14:18.683Z,25.73
2022-11-15T06:16:45.880Z,31.45
2022-11-15T06:19:12.952Z,29.80
2022-11-15T06:22:00.087Z,33.00
2022-11-15T06:24:27.233Z,28.25
2022-11-15T06:26:54.538Z,33.95
2022-11-15T06:29:21.771Z,31.10
2022-11-15T06:31:48.865Z,35.40
2022-11-15T06:34:17.481Z,21.92
2022-11-15T06:36:44.664Z,28.55
2022-11-15T06:39:11.831Z,29.30
2022-11-15T06:41:38.902Z,31.45
2022-11-15T06:44:06.006Z,28.48
2022-11-15T06:46:33.067Z,28.98
2022-11-15T06:49:02.051Z,30.02
2022-11-15T06:55:01.558Z,36.72
2022-11-15T06:57:28.653Z,33.67
2022-11-15T06:59:55.925Z,40.45
2022-11-15T07:02:23.228Z,26.17
2022-11-15T07:04:50.315Z,31.52
2022-11-15T07:07:17.532Z,34.83
2022-11-15T07:09:44.791Z,30.90
2022-11-15T07:12:13.040Z,23.40
2022-11-15T07:14:40.316Z,28.65
2022-11-15T07:17:07.840Z,29.75
2022-11-15T07:19:35.095Z,31.27
2022-11-15T07:22:02.469Z,29.00
2022-11-15T07:24:29.667Z,31.15
2022-11-15T07:26:56.972Z,34.20
2022-11-15T07:29:24.544Z,29.88
2022-11-15T07:31:53.061Z,26.77
2022-11-15T07:34:20.287Z,27.23
2022-11-15T07:36:48.059Z,28.08
2022-11-15T07:39:15.876Z,27.83
2022-11-15T07:41:44.596Z,29.25
2022-11-15T07:44:11.839Z,26.92
2022-11-15T07:46:39.691Z,23.70
2022-11-15T07:49:06.860Z,29.17
2022-11-15T07:51:34.153Z,26.08
2022-11-15T07:54:01.760Z,25.58
2022-11-15T07:56:28.882Z,25.92
2022-11-15T07:58:56.142Z,23.67
2022-11-15T08:01:23.584Z,22.08
2022-11-15T08:03:51.174Z,25.52
2022-11-15T08:06:18.539Z,29.20
2022-11-15T08:08:47.911Z,25.67
2022-11-15T08:11:15.317Z,23.23
2022-11-15T08:13:42.823Z,22.65
2022-11-15T08:16:10.785Z,20.83
2022-11-15T08:18:38.625Z,23.88
2022-11-15T08:21:06.656Z,34.80
2022-11-15T08:23:34.137Z,24.33
2022-11-15T08:26:02.237Z,21.15
2022-11-15T08:28:29.469Z,20.75
2022-11-15T08:30:56.762Z,18.15
2022-11-15T08:33:24.140Z,21.45
2022-11-15T08:35:51.614Z,23.98
2022-11-15T08:38:21.057Z,23.27
2022-11-15T08:40:48.336Z,44.72
2022-11-15T08:43:15.434Z,22.15
2022-11-15T08:45:42.688Z,22.55
2022-11-15T08:48:10.587Z,18.52
2022-11-15T08:50:38.062Z,18.48
2022-11-15T08:53:09.435Z,19.27
2022-11-15T08:55:40.398Z,18.52
2022-11-15T08:58:07.905Z,19.35
2022-11-15T09:00:35.544Z,18.30
2022-11-15T09:03:07.689Z,18.50
2022-11-15T09:05:37.176Z,18.30
2022-11-15T09:08:25.484Z,14.63
2022-11-15T09:10:54.923Z,13.88
2022-11-15T09:16:07.267Z,16.05
2022-11-15T09:18:35.192Z,17.50
2022-11-15T09:21:03.995Z,17.58
2022-11-15T09:26:02.175Z,12.45
2022-11-15T09:28:30.070Z,14.80
2022-11-15T09:33:45.619Z,15.20
2022-11-15T09:36:35.551Z,27.85
2022-11-15T09:42:31.286Z,11.57
2022-11-15T09:45:11.838Z,14.10
2022-11-15T09:47:54.168Z,14.80
2022-11-15T09:50:32.815Z,13.55
2022-11-15T09:53:00.210Z,13.15
2022-11-15T09:55:34.643Z,10.55
2022-11-15T09:58:27.347Z,12.52
2022-11-15T10:00:55.115Z,12.40
2022-11-15T10:03:23.263Z,11.13
2022-11-15T10:05:52.452Z,11.95
2022-11-15T10:08:25.393Z,11.23
2022-11-15T10:11:30.597Z,10.30
2022-11-15T10:28:48.490Z,8.32
2022-11-15T10:31:27.230Z,8.68
2022-11-15T10:34:01.095Z,8.05
2022-11-15T10:36:29.515Z,8.95
2022-11-15T10:39:20.970Z,8.25
2022-11-15T10:41:49.534Z,6.78
2022-11-15T10:44:33.882Z,8.32
2022-11-15T10:47:03.927Z,12.00
2022-11-15T10:49:35.407Z,8.82
2022-11-15T10:52:05.399Z,6.18
2022-11-15T10:54:39.092Z,5.28
2022-11-15T10:57:26.665Z,8.30
2022-11-15T10:59:58.271Z,3.88
2022-11-15T11:02:34.644Z,7.63
2022-11-15T11:05:02.947Z,9.63
2022-11-15T11:07:31.917Z,5.45
2022-11-15T11:10:02.173Z,7.05
2022-11-15T11:12:31.252Z,6.22
2022-11-15T11:14:58.900Z,2.00
2022-11-15T11:17:35.924Z,3.20
2022-11-15T11:20:11.788Z,5.43
2022-11-15T11:22:43.308Z,6.80
2022-11-15T11:25:19.307Z,6.20
2022-11-15T11:27:58.843Z,4.78
2022-11-15T11:30:46.314Z,5.15
2022-11-15T11:36:07.400Z,5.40
2022-11-15T11:38:55.872Z,6.18
2022-11-15T11:41:23.291Z,5.20
2022-11-15T11:43:50.711Z,4.20
2022-11-15T11:46:36.688Z,4.85
2022-11-15T11:49:24.023Z,4.68
2022-11-15T11:52:03.147Z,4.40
2022-11-15T11:54:31.774Z,5.40
2022-11-15T11:57:00.585Z,17.40
2022-11-15T11:59:33.775Z,5.72
2022-11-15T12:02:04.568Z,6.50
2022-11-15T12:04:36.900Z,4.05
2022-11-15T12:07:22.459Z,9.25
2022-11-15T12:09:55.610Z,8.60
2022-11-15T12:15:49.202Z,2.55
2022-11-15T12:18:17.304Z,3.25
2022-11-15T12:20:52.673Z,8.35
2022-11-15T12:26:48.875Z,3.65
2022-11-15T12:29:42.503Z,4.00
2022-11-15T12:32:30.321Z,4.93
2022-11-15T12:34:58.131Z,4.68
2022-11-15T12:37:43.855Z,2.78
2022-11-15T12:40:14.395Z,4.25
2022-11-15T12:43:05.809Z,5.78
2022-11-15T12:45:35.015Z,5.63
2022-11-15T12:48:17.752Z,3.00
2022-11-15T12:50:57.081Z,5.32
2022-11-15T12:53:31.885Z,6.47
2022-11-15T12:58:44.332Z,1.33
2022-11-15T13:01:12.200Z,4.15
2022-11-15T13:03:59.888Z,5.03
2022-11-15T13:06:49.023Z,3.00
2022-11-15T13:09:31.782Z,4.68
2022-11-15T13:11:59.932Z,11.25
2022-11-15T13:14:42.627Z,7.50
2022-11-15T13:17:28.440Z,2.97
2022-11-15T13:20:00.979Z,4.65
2022-11-15T13:23:09.976Z,6.95
2022-11-15T13:25:43.210Z,3.75
2022-11-15T13:28:17.036Z,4.28
2022-11-15T13:30:45.164Z,4.22
2022-11-15T13:33:23.432Z,3.88
2022-11-15T13:39:27.347Z,13.25
2022-11-15T13:41:54.690Z,8.93
2022-11-15T13:44:25.283Z,7.47
2022-11-15T13:47:05.066Z,1.95
2022-11-15T13:49:34.348Z,7.63
2022-11-15T13:52:06.478Z,8.05
2022-11-15T13:54:33.778Z,2.45
2022-11-15T13:57:24.259Z,8.00
2022-11-15T13:59:54.420Z,13.88
2022-11-15T14:02:33.114Z,6.35
2022-11-15T14:05:05.184Z,7.45
2022-11-15T14:07:33.565Z,3.30
2022-11-15T14:10:18.606Z,4.32
2022-11-15T14:12:52.926Z,5.80
2022-11-15T14:15:38.508Z,3.53
2022-11-15T14:18:06.490Z,3.15
2022-11-15T14:20:35.057Z,4.07
2022-11-15T14:23:04.503Z,5.13
2022-11-15T14:25:33.273Z,6.13
2022-11-15T14:28:18.957Z,8.18
2022-11-15T14:30:48.242Z,6.05
2022-11-15T14:33:26.058Z,7.07
2022-11-15T14:35:54.443Z,3.05
2022-11-15T14:38:21.891Z,5.15
2022-11-15T14:40:49.185Z,6.90
2022-11-15T14:43:16.928Z,5.07
2022-11-15T14:45:44.642Z,3.88
2022-11-15T14:48:12.726Z,6.43
2022-11-15T14:50:41.368Z,15.77
2022-11-15T14:53:08.660Z,9.63
2022-11-15T14:55:37.394Z,4.15
2022-11-15T15:00:35.170Z,4.85
2022-11-15T15:03:03.456Z,2.15
2022-11-15T15:05:34.840Z,4.68
2022-11-15T15:08:02.275Z,4.10
2022-11-15T15:10:40.119Z,5.80
2022-11-15T15:13:15.119Z,2.88
2022-11-15T15:15:43.198Z,3.03
2022-11-15T15:18:18.499Z,4.20
2022-11-15T15:21:06.568Z,4.40
2022-11-15T15:23:53.350Z,2.25
2022-11-15T15:26:20.640Z,3.85
2022-11-15T15:28:50.378Z,6.15
2022-11-15T15:31:19.425Z,2.53
2022-11-15T15:33:46.641Z,2.50
2022-11-15T15:36:14.922Z,2.58
2022-11-15T15:38:42.639Z,4.63
2022-11-15T15:41:11.946Z,1.90
2022-11-15T15:43:40.185Z,4.25
2022-11-15T15:46:11.678Z,4.97
2022-11-15T15:48:48.973Z,4.57
2022-11-15T15:51:20.378Z,3.75
2022-11-15T15:53:53.204Z,4.65
2022-11-15T15:56:20.450Z,6.57
2022-11-15T15:58:47.878Z,17.42
2022-11-15T16:01:15.242Z,18.50
2022-11-15T16:03:42.446Z,13.27
2022-11-15T16:06:29.547Z,7.35
2022-11-15T16:11:43.242Z,5.85
2022-11-15T16:14:11.325Z,4.32
2022-11-15T16:16:41.854Z,22.60
2022-11-15T16:19:11.522Z,19.98
2022-11-15T16:21:38.990Z,6.55
2022-11-15T16:24:06.645Z,11.57
2022-11-15T16:26:35.057Z,6.43
2022-11-15T16:29:02.594Z,18.92
2022-11-15T16:31:29.724Z,9.50
2022-11-15T16:33:56.990Z,9.80
2022-11-15T16:36:29.892Z,4.60
2022-11-15T16:38:58.115Z,4.35
2022-11-15T16:41:25.246Z,5.05
2022-11-15T16:43:52.923Z,2.63
2022-11-15T16:46:24.721Z,5.05
2022-11-15T16:48:52.396Z,3.15
2022-11-15T16:51:19.772Z,6.55
2022-11-15T16:53:47.021Z,5.72
2022-11-15T16:56:34.593Z,2.22
2022-11-15T17:04:38.972Z,5.93
2022-11-15T17:09:34.411Z,2.75
2022-11-15T17:12:23.484Z,9.30
2022-11-15T17:14:50.621Z,7.25
2022-11-15T17:17:37.105Z,2.50
2022-11-15T17:20:09.869Z,7.75
2022-11-15T17:22:37.338Z,5.18
2022-11-15T17:25:04.858Z,7.97
2022-11-15T17:27:32.355Z,6.78
2022-11-15T17:29:59.742Z,5.07
2022-11-15T17:32:26.853Z,8.45
2022-11-15T17:34:53.973Z,7.18
2022-11-15T17:37:21.596Z,6.13
2022-11-15T17:39:48.883Z,4.45
2022-11-15T17:42:15.993Z,7.82
2022-11-15T17:44:43.384Z,8.40
2022-11-15T17:47:10.478Z,6.45
2022-11-15T17:49:40.720Z,6.13
2022-11-15T17:52:08.458Z,6.28
2022-11-15T17:54:35.682Z,5.72
2022-11-15T17:57:02.890Z,6.60
2022-11-15T17:59:30.426Z,7.05
2022-11-15T18:01:57.580Z,10.60
2022-11-15T18:04:28.378Z,7.30
2022-11-15T18:06:56.877Z,5.63
2022-11-15T18:09:25.948Z,7.90
2022-11-15T18:11:54.490Z,5.90
2022-11-15T18:14:21.853Z,6.80
2022-11-15T18:16:49.077Z,7.20
2022-11-15T18:19:16.422Z,4.00
2022-11-15T18:21:57.530Z,9.93
2022-11-15T18:24:25.894Z,7.25
2022-11-15T18:26:53.318Z,4.95
2022-11-15T18:29:20.587Z,9.90
2022-11-15T18:31:50.458Z,7.20
2022-11-15T18:34:19.207Z,6.35
2022-11-15T18:36:49.661Z,4.82
2022-11-15T18:39:20.438Z,6.93
2022-11-15T18:41:48.194Z,6.95
2022-11-15T18:46:53.985Z,6.10
2022-11-15T18:49:21.182Z,8.18
2022-11-15T18:51:48.408Z,5.85
2022-11-15T18:54:16.460Z,7.95
2022-11-15T18:56:47.330Z,10.32
2022-11-15T18:59:15.152Z,7.75
2022-11-15T19:01:43.874Z,10.77
2022-11-15T19:04:17.696Z,8.98
2022-11-15T19:06:46.304Z,13.30
2022-11-15T19:09:15.317Z,8.10
2022-11-15T19:11:43.240Z,10.18
2022-11-15T19:14:12.005Z,9.05
2022-11-15T19:19:08.596Z,8.90
2022-11-15T19:21:35.801Z,8.80
2022-11-15T19:24:03.253Z,6.82
2022-11-15T19:26:30.356Z,8.77
2022-11-15T19:28:58.590Z,8.85
2022-11-15T19:31:26.788Z,7.88
2022-11-15T19:33:54.262Z,5.53
2022-11-15T19:36:27.209Z,6.75
2022-11-15T19:38:54.988Z,10.30
2022-11-15T19:41:23.154Z,10.02
2022-11-15T19:43:53.519Z,9.13
2022-11-15T19:46:21.926Z,9.73
2022-11-15T19:48:49.493Z,10.55
2022-11-15T19:51:27.467Z,24.20
2022-11-15T19:53:56.301Z,11.93
2022-11-15T19:58:52.364Z,8.57
2022-11-15T20:01:27.246Z,9.48
2022-11-15T20:06:29.756Z,7.63
2022-11-15T20:11:24.409Z,9.25
2022-11-15T20:13:51.634Z,9.73
2022-11-15T20:16:20.934Z,13.35
2022-11-15T20:18:48.752Z,9.43
2022-11-15T20:21:16.128Z,10.40
2022-11-15T20:23:43.553Z,9.50
2022-11-15T20:26:11.768Z,11.45
2022-11-15T20:28:39.598Z,5.88
2022-11-15T20:31:07.454Z,10.10
2022-11-15T20:33:34.981Z,11.05
2022-11-15T20:36:06.840Z,9.10
2022-11-15T20:38:34.704Z,11.13
2022-11-15T20:41:02.213Z,8.65
2022-11-15T20:43:29.500Z,9.15
2022-11-15T20:45:56.613Z,11.00
2022-11-15T20:48:23.913Z,12.73
2022-11-15T20:50:51.391Z,10.00
2022-11-15T20:53:20.195Z,9.20
2022-11-15T20:55:49.035Z,9.88
2022-11-15T20:58:16.785Z,10.65
2022-11-15T21:00:44.982Z,11.10
2022-11-15T21:03:12.620Z,9.70
2022-11-15T21:05:40.066Z,9.60
2022-11-15T21:08:07.783Z,11.50
2022-11-15T21:11:04.414Z,14.85
2022-11-15T21:13:31.577Z,10.43
2022-11-15T21:15:58.656Z,9.52
2022-11-15T21:18:25.982Z,11.80
2022-11-15T21:20:53.865Z,11.65
2022-11-15T21:23:21.117Z,12.00
2022-11-15T21:25:51.755Z,13.27
2022-11-15T21:28:18.925Z,14.60
2022-11-15T21:30:53.238Z,8.60
2022-11-15T21:33:21.494Z,13.93
2022-11-15T21:35:48.612Z,14.65
2022-11-15T21:38:15.798Z,10.45
2022-11-15T21:40:42.928Z,16.83
2022-11-15T21:43:10.052Z,10.23
2022-11-15T21:45:37.132Z,9.05
2022-11-15T21:48:04.504Z,16.85
2022-11-15T21:50:31.797Z,13.52
2022-11-15T21:52:58.886Z,11.82
2022-11-15T21:55:26.015Z,11.57
2022-11-15T21:57:53.098Z,13.35
2022-11-15T22:00:39.173Z,10.80
2022-11-15T22:03:06.385Z,13.73
2022-11-15T22:05:33.525Z,11.43
2022-11-15T22:08:00.736Z,13.30
2022-11-15T22:10:27.834Z,13.48
2022-11-15T22:12:54.943Z,13.60
2022-11-15T22:15:22.061Z,8.45
2022-11-15T22:17:58.515Z,14.20
2022-11-15T22:23:13.200Z,15.85
2022-11-15T22:25:40.621Z,13.52
2022-11-15T22:28:07.908Z,14.57
2022-11-15T22:30:35.164Z,13.05
2022-11-15T22:33:02.309Z,14.75
2022-11-15T22:35:29.946Z,12.10
2022-11-15T22:37:57.209Z,12.27
2022-11-15T22:40:24.295Z,13.90
2022-11-15T22:42:51.402Z,14.85
2022-11-15T22:45:18.515Z,16.25
2022-11-15T22:47:45.658Z,12.10
2022-11-15T22:50:12.726Z,13.52
2022-11-15T22:52:39.899Z,14.40
2022-11-15T22:55:07.289Z,14.68
2022-11-15T22:57:34.409Z,12.52
2022-11-15T23:00:01.587Z,12.18
2022-11-15T23:02:28.752Z,13.32
2022-11-15T23:04:55.931Z,11.40
2022-11-15T23:07:23.300Z,13.35
2022-11-15T23:09:52.170Z,14.25
2022-11-15T23:12:38.489Z,14.20
2022-11-15T23:15:05.867Z,14.85
2022-11-15T23:17:33.312Z,13.30
2022-11-15T23:20:11.164Z,17.90
2022-11-15T23:25:14.542Z,13.10
2022-11-15T23:27:41.988Z,9.82
2022-11-15T23:30:28.286Z,11.65
2022-11-15T23:33:15.643Z,15.27
2022-11-15T23:35:43.118Z,11.65
2022-11-15T23:38:10.218Z,11.02
2022-11-15T23:40:37.318Z,14.18
2022-11-15T23:43:04.592Z,12.13
2022-11-15T23:45:31.897Z,12.10
2022-11-15T23:48:01.538Z,14.82
2022-11-15T23:50:29.043Z,14.70
2022-11-15T23:52:56.227Z,12.23
2022-11-15T23:55:23.312Z,12.35
2022-11-15T23:57:50.441Z,14.07
